createdAt,value
2023-01-26T00:00:15.566Z,0
2023-01-26T00:05:15.689Z,0
2023-01-26T00:10:18.680Z,0
2023-01-26T00:15:18.711Z,1
2023-01-26T00:20:18.648Z,1
2023-01-26T00:25:18.806Z,1
2023-01-26T00:30:18.769Z,1
2023-01-26T00:35:18.774Z,1
2023-01-26T00:40:18.775Z,0
2023-01-26T00:45:18.762Z,1
2023-01-26T00:50:18.821Z,0
2023-01-26T00:55:15.722Z,1
2023-01-26T01:00:15.794Z,1
2023-01-26T01:05:18.953Z,1
2023-01-26T01:10:18.841Z,1
2023-01-26T01:15:18.858Z,1
2023-01-26T01:20:18.865Z,0
2023-01-26T01:25:18.949Z,0
2023-01-26T01:30:19.063Z,1
2023-01-26T01:35:18.908Z,2
2023-01-26T01:40:18.925Z,1
2023-01-26T01:45:18.909Z,1
2023-01-26T01:50:15.810Z,2
2023-01-26T01:55:19.183Z,0
2023-01-26T02:00:18.992Z,0
2023-01-26T02:05:18.929Z,0
2023-01-26T02:10:18.999Z,0
2023-01-26T02:15:19.007Z,1
2023-01-26T02:20:18.853Z,1
2023-01-26T02:25:18.969Z,1
2023-01-26T02:30:18.930Z,1
2023-01-26T02:35:19.264Z,0
2023-01-26T02:40:15.956Z,1
2023-01-26T02:45:15.925Z,1
2023-01-26T02:50:19.051Z,0
2023-01-26T02:55:19.120Z,1
2023-01-26T03:00:19.108Z,0
2023-01-26T03:05:19.091Z,0
2023-01-26T03:10:19.170Z,0
2023-01-26T03:15:19.089Z,0
2023-01-26T03:20:19.145Z,0
2023-01-26T03:25:19.284Z,0
2023-01-26T03:30:19.228Z,0
2023-01-26T03:35:16.140Z,0
2023-01-26T03:40:16.249Z,0
2023-01-26T03:45:19.209Z,0
2023-01-26T03:50:19.154Z,1
2023-01-26T03:55:19.273Z,1
2023-01-26T04:00:19.301Z,0
2023-01-26T04:05:19.188Z,0
2023-01-26T04:10:19.230Z,1
2023-01-26T04:15:19.172Z,1
2023-01-26T04:20:19.188Z,0
2023-01-26T04:25:19.397Z,1
2023-01-26T04:30:16.142Z,0
2023-01-26T04:35:19.277Z,1
2023-01-26T04:40:19.409Z,0
2023-01-26T04:45:19.296Z,0
2023-01-26T04:50:19.297Z,0
2023-01-26T04:55:19.345Z,1
2023-01-26T05:00:17.519Z,0
2023-01-26T05:05:20.761Z,0
2023-01-26T05:10:20.569Z,1
2023-01-26T05:15:20.644Z,1
2023-01-26T05:20:18.572Z,1
2023-01-26T05:25:18.677Z,1
2023-01-26T05:30:18.583Z,1
2023-01-26T05:35:15.531Z,1
2023-01-26T05:40:15.551Z,1
2023-01-26T05:45:18.686Z,1
2023-01-26T05:50:18.755Z,1
2023-01-26T05:55:18.692Z,1
2023-01-26T06:00:18.696Z,2
2023-01-26T06:05:18.714Z,1
2023-01-26T06:10:18.667Z,1
2023-01-26T06:15:18.732Z,0
2023-01-26T06:20:18.808Z,1
2023-01-26T06:25:18.738Z,0
2023-01-26T06:30:15.719Z,1
2023-01-26T06:35:15.672Z,0
2023-01-26T06:40:18.734Z,0
2023-01-26T06:45:18.793Z,0
2023-01-26T06:50:18.773Z,0
2023-01-26T06:55:18.788Z,0
2023-01-26T07:00:18.829Z,0
2023-01-26T07:05:19.074Z,0
2023-01-26T07:10:18.860Z,0
2023-01-26T07:15:18.806Z,0
2023-01-26T07:20:18.822Z,0
2023-01-26T07:25:15.679Z,0
2023-01-26T07:30:18.872Z,0
2023-01-26T07:35:18.872Z,0
2023-01-26T07:40:18.930Z,1
2023-01-26T07:45:18.864Z,1
2023-01-26T07:50:18.859Z,0
2023-01-26T07:55:18.901Z,0
2023-01-26T08:00:18.952Z,0
2023-01-26T08:05:18.908Z,0
2023-01-26T08:10:18.918Z,2
2023-01-26T08:15:15.919Z,1
2023-01-26T08:20:15.869Z,0
2023-01-26T08:25:19.018Z,1
2023-01-26T08:30:19.169Z,0
2023-01-26T08:35:19.044Z,0
2023-01-26T08:40:19.040Z,0
2023-01-26T08:45:19.051Z,1
2023-01-26T08:50:19.019Z,1
2023-01-26T08:55:19.039Z,0
2023-01-26T09:00:19.051Z,0
2023-01-26T09:05:19.057Z,0
2023-01-26T09:10:15.867Z,1
2023-01-26T09:15:15.915Z,2
2023-01-26T09:20:19.263Z,0
2023-01-26T09:25:19.117Z,0
2023-01-26T09:30:19.229Z,0
2023-01-26T09:35:19.595Z,0
2023-01-26T09:40:19.171Z,0
2023-01-26T09:45:19.147Z,0
2023-01-26T09:50:19.174Z,0
2023-01-26T09:55:19.186Z,0
2023-01-26T10:00:16.104Z,1
2023-01-26T10:05:16.118Z,1
2023-01-26T10:10:19.241Z,0
2023-01-26T10:15:19.147Z,5
2023-01-26T10:20:19.087Z,6
2023-01-26T10:25:19.272Z,8
2023-01-26T10:30:19.487Z,5
2023-01-26T10:35:19.265Z,6
2023-01-26T10:40:19.376Z,3
2023-01-26T10:45:19.305Z,3
2023-01-26T10:50:19.265Z,4
2023-01-26T10:55:16.287Z,2
2023-01-26T11:00:16.268Z,3
2023-01-26T11:05:19.540Z,1
2023-01-26T11:10:19.340Z,1
2023-01-26T11:15:19.318Z,0
2023-01-26T11:20:19.415Z,0
2023-01-26T11:25:19.449Z,0
2023-01-26T11:30:19.362Z,0
2023-01-26T11:35:19.354Z,0
2023-01-26T11:40:19.632Z,0
2023-01-26T11:45:19.413Z,0
2023-01-26T11:50:16.313Z,0
2023-01-26T11:55:19.345Z,0
2023-01-26T12:00:29.420Z,1
2023-01-26T12:05:19.514Z,1
2023-01-26T12:10:19.432Z,1
2023-01-26T12:15:19.693Z,1
2023-01-26T12:20:21.278Z,2
2023-01-26T12:25:28.761Z,1
2023-01-26T12:30:19.622Z,0
2023-01-26T12:35:19.510Z,2
2023-01-26T12:40:16.439Z,3
2023-01-26T12:45:18.415Z,2
2023-01-26T12:50:19.591Z,4
2023-01-26T12:55:19.605Z,5
2023-01-26T13:00:19.620Z,4
2023-01-26T13:05:19.571Z,4
2023-01-26T13:10:19.640Z,3
2023-01-26T13:15:19.588Z,3
2023-01-26T13:20:19.617Z,2
2023-01-26T13:25:19.575Z,0
2023-01-26T13:30:19.618Z,0
2023-01-26T13:35:16.642Z,0
2023-01-26T13:40:16.461Z,0
2023-01-26T13:45:19.664Z,0
2023-01-26T13:50:19.751Z,0
2023-01-26T13:55:19.674Z,0
2023-01-26T14:00:19.629Z,0
2023-01-26T14:05:19.695Z,0
2023-01-26T14:10:19.743Z,0
2023-01-26T14:15:19.733Z,0
2023-01-26T14:20:19.697Z,0
2023-01-26T14:25:19.768Z,0
2023-01-26T14:30:17.150Z,0
2023-01-26T14:35:19.819Z,0
2023-01-26T14:40:19.890Z,0
2023-01-26T14:45:19.735Z,0
2023-01-26T14:50:19.756Z,1
2023-01-26T14:55:19.804Z,1
2023-01-26T15:00:19.772Z,1
2023-01-26T15:05:19.716Z,1
2023-01-26T15:10:19.732Z,1
2023-01-26T15:15:19.860Z,1
2023-01-26T15:20:16.724Z,1
2023-01-26T15:25:16.862Z,1
2023-01-26T15:30:20.135Z,2
2023-01-26T15:35:19.876Z,1
2023-01-26T15:40:20.026Z,1
2023-01-26T15:45:19.954Z,2
2023-01-26T15:50:27.910Z,2
2023-01-26T15:55:19.916Z,1
2023-01-26T16:00:19.895Z,1
2023-01-26T16:05:20.063Z,2
2023-01-26T16:10:19.975Z,2
2023-01-26T16:15:16.923Z,1
2023-01-26T16:20:16.753Z,2
2023-01-26T16:25:20.101Z,2
2023-01-26T16:30:20.052Z,2
2023-01-26T16:35:20.001Z,1
2023-01-26T16:40:20.104Z,2
2023-01-26T16:45:20.043Z,2
2023-01-26T16:50:20.074Z,2
2023-01-26T16:55:20.015Z,2
2023-01-26T17:00:20.094Z,2
2023-01-26T17:05:16.890Z,2
2023-01-26T17:10:16.934Z,2
2023-01-26T17:15:20.265Z,2
2023-01-26T17:20:20.357Z,2
2023-01-26T17:25:20.198Z,3
2023-01-26T17:30:20.180Z,2
2023-01-26T17:35:20.124Z,3
2023-01-26T17:40:20.140Z,2
2023-01-26T17:45:20.128Z,2
2023-01-26T17:50:20.261Z,1
2023-01-26T17:55:20.177Z,2
2023-01-26T18:00:16.992Z,1
2023-01-26T18:05:16.992Z,2
2023-01-26T18:10:20.252Z,3
2023-01-26T18:15:20.228Z,4
2023-01-26T18:20:20.152Z,2
2023-01-26T18:25:20.186Z,3
2023-01-26T18:30:20.409Z,2
2023-01-26T18:35:20.256Z,3
2023-01-26T18:40:20.263Z,2
2023-01-26T18:45:20.230Z,5
2023-01-26T18:50:20.291Z,4
2023-01-26T18:55:17.167Z,2
2023-01-26T19:00:20.495Z,4
2023-01-26T19:05:19.333Z,3
2023-01-26T19:10:16.202Z,3
2023-01-26T19:15:16.251Z,4
2023-01-26T19:20:19.386Z,3
2023-01-26T19:25:19.300Z,2
2023-01-26T19:30:19.311Z,3
2023-01-26T19:35:19.439Z,3
2023-01-26T19:40:19.384Z,3
2023-01-26T19:45:19.387Z,3
2023-01-26T19:50:19.401Z,4
2023-01-26T19:55:19.470Z,3
2023-01-26T20:00:19.390Z,3
2023-01-26T20:05:16.327Z,3
2023-01-26T20:10:16.421Z,3
2023-01-26T20:15:19.500Z,2
2023-01-26T20:20:19.344Z,1
2023-01-26T20:25:19.508Z,2
2023-01-26T20:30:19.438Z,1
2023-01-26T20:35:19.516Z,2
2023-01-26T20:40:19.511Z,2
2023-01-26T20:45:19.534Z,2
2023-01-26T20:50:19.568Z,4
2023-01-26T20:55:19.641Z,2
2023-01-26T21:00:16.515Z,4
2023-01-26T21:05:16.664Z,12
2023-01-26T21:10:19.932Z,8
2023-01-26T21:15:19.588Z,6
2023-01-26T21:20:19.699Z,7
2023-01-26T21:25:19.646Z,7
2023-01-26T21:30:19.691Z,7
2023-01-26T21:35:19.611Z,3
2023-01-26T21:40:19.654Z,2
2023-01-26T21:45:19.649Z,4
2023-01-26T21:50:16.585Z,5
2023-01-26T21:55:16.505Z,5
2023-01-26T22:00:19.743Z,4
2023-01-26T22:05:19.671Z,5
2023-01-26T22:10:19.696Z,4
2023-01-26T22:15:19.675Z,4
2023-01-26T22:20:19.632Z,4
2023-01-26T22:25:19.731Z,2
2023-01-26T22:30:19.713Z,5
2023-01-26T22:35:19.864Z,2
2023-01-26T22:40:19.738Z,3
2023-01-26T22:45:16.684Z,3
2023-01-26T22:50:16.664Z,3
2023-01-26T22:55:19.677Z,3
2023-01-26T23:00:19.792Z,3
2023-01-26T23:05:19.766Z,3
2023-01-26T23:10:19.807Z,3
2023-01-26T23:15:19.804Z,4
2023-01-26T23:20:19.800Z,2
2023-01-26T23:25:19.878Z,3
2023-01-26T23:30:19.876Z,3
2023-01-26T23:35:19.906Z,4
2023-01-26T23:40:16.774Z,3
2023-01-26T23:45:19.828Z,2
2023-01-26T23:50:19.912Z,3
2023-01-26T23:55:19.909Z,4
